createdAt,value
2023-07-29T00:00:41.854Z,17.30
2023-07-29T00:03:44.290Z,17.23
2023-07-29T00:06:46.772Z,17.05
2023-07-29T00:09:49.223Z,16.99
2023-07-29T00:12:51.612Z,17.03
2023-07-29T00:15:56.706Z,17.06
2023-07-29T00:18:59.179Z,17.00
2023-07-29T00:22:01.647Z,17.14
2023-07-29T00:25:04.253Z,17.08
2023-07-29T00:28:06.838Z,16.93
2023-07-29T00:31:09.360Z,16.83
2023-07-29T00:34:11.846Z,16.86
2023-07-29T00:37:14.283Z,16.85
2023-07-29T00:40:21.946Z,16.96
2023-07-29T00:43:24.393Z,17.05
2023-07-29T00:46:29.885Z,17.08
2023-07-29T00:49:33.684Z,17.25
2023-07-29T00:52:36.221Z,17.22
2023-07-29T00:55:38.748Z,17.39
2023-07-29T00:58:41.239Z,17.31
2023-07-29T01:01:43.982Z,17.30
2023-07-29T01:04:46.436Z,17.15
2023-07-29T01:07:49.493Z,17.04
2023-07-29T01:11:19.941Z,17.24
2023-07-29T01:14:42.645Z,17.57
2023-07-29T01:17:55.581Z,17.47
2023-07-29T01:21:05.244Z,17.53
2023-07-29T01:24:07.694Z,17.49
2023-07-29T01:27:10.122Z,17.42
2023-07-29T01:30:15.037Z,17.42
2023-07-29T01:33:27.894Z,17.39
2023-07-29T01:36:32.954Z,17.40
2023-07-29T01:39:39.031Z,17.42
2023-07-29T01:42:41.612Z,17.45
2023-07-29T01:45:44.299Z,17.49
2023-07-29T01:48:46.813Z,17.45
2023-07-29T01:51:50.406Z,17.34
2023-07-29T01:54:53.438Z,17.25
2023-07-29T01:57:55.908Z,17.19
2023-07-29T02:00:59.712Z,17.22
2023-07-29T02:04:02.197Z,17.17
2023-07-29T02:07:04.961Z,17.07
2023-07-29T02:10:08.808Z,17.08
2023-07-29T02:13:11.799Z,16.90
2023-07-29T02:16:14.238Z,16.68
2023-07-29T02:19:17.092Z,16.63
2023-07-29T02:22:19.644Z,16.68
2023-07-29T02:25:22.088Z,16.63
2023-07-29T02:28:24.680Z,16.55
2023-07-29T02:31:27.324Z,16.70
2023-07-29T02:34:30.272Z,16.62
2023-07-29T02:37:32.876Z,16.58
2023-07-29T02:40:35.393Z,16.72
2023-07-29T02:43:37.825Z,16.90
2023-07-29T02:46:40.617Z,17.03
2023-07-29T02:49:43.330Z,16.87
2023-07-29T02:52:46.741Z,16.33
2023-07-29T02:55:50.403Z,16.49
2023-07-29T02:58:53.166Z,16.56
2023-07-29T03:01:55.710Z,16.36
2023-07-29T03:04:58.173Z,16.02
2023-07-29T03:08:00.847Z,16.08
2023-07-29T03:11:14.520Z,15.85
2023-07-29T03:14:16.944Z,15.97
2023-07-29T03:17:19.655Z,15.95
2023-07-29T03:20:22.272Z,16.13
2023-07-29T03:23:24.783Z,16.14
2023-07-29T03:26:27.234Z,16.09
2023-07-29T03:29:29.609Z,15.99
2023-07-29T03:32:32.124Z,16.17
2023-07-29T03:35:34.553Z,16.34
2023-07-29T03:38:41.162Z,16.13
2023-07-29T03:41:44.060Z,16.40
2023-07-29T03:44:46.459Z,16.59
2023-07-29T03:47:48.893Z,16.92
2023-07-29T03:50:51.516Z,17.19
2023-07-29T03:53:53.960Z,17.16
2023-07-29T03:56:56.503Z,17.18
2023-07-29T03:59:58.957Z,17.10
2023-07-29T04:03:01.478Z,17.31
2023-07-29T04:06:04.152Z,17.65
2023-07-29T04:09:06.700Z,19.71
2023-07-29T04:12:09.346Z,19.96
2023-07-29T04:15:11.807Z,18.51
2023-07-29T04:18:14.271Z,18.01
2023-07-29T04:21:17.626Z,18.22
2023-07-29T04:24:21.393Z,18.10
2023-07-29T04:27:24.000Z,18.07
2023-07-29T04:30:26.601Z,18.12
2023-07-29T04:33:31.100Z,18.61
2023-07-29T04:36:33.750Z,18.84
2023-07-29T04:39:36.676Z,19.05
2023-07-29T04:42:39.136Z,19.12
2023-07-29T04:45:45.248Z,19.25
2023-07-29T04:48:47.694Z,19.27
2023-07-29T04:51:50.108Z,19.34
2023-07-29T04:54:52.555Z,19.66
2023-07-29T04:57:54.949Z,20.81
2023-07-29T05:00:57.426Z,21.83
2023-07-29T05:03:59.885Z,28.74
2023-07-29T05:07:02.626Z,23.66
2023-07-29T05:10:05.943Z,26.11
2023-07-29T05:13:11.700Z,22.32
2023-07-29T05:16:14.878Z,21.51
2023-07-29T05:19:17.307Z,21.46
2023-07-29T05:22:19.713Z,20.79
2023-07-29T05:25:22.301Z,20.56
2023-07-29T05:28:24.800Z,21.05
2023-07-29T05:31:27.368Z,21.39
2023-07-29T05:34:30.094Z,21.46
2023-07-29T05:37:32.527Z,21.94
2023-07-29T05:40:35.178Z,29.07
2023-07-29T05:43:38.504Z,29.26
2023-07-29T05:46:41.157Z,26.28
2023-07-29T05:49:43.843Z,24.91
2023-07-29T05:52:46.272Z,25.12
2023-07-29T05:55:48.740Z,24.47
2023-07-29T05:58:51.132Z,26.27
2023-07-29T06:01:53.887Z,22.70
2023-07-29T06:04:57.172Z,23.00
2023-07-29T06:08:00.034Z,26.42
2023-07-29T06:11:02.726Z,25.68
2023-07-29T06:14:05.172Z,29.11
2023-07-29T06:17:08.343Z,29.02
2023-07-29T06:20:11.387Z,30.50
2023-07-29T06:23:13.884Z,33.54
2023-07-29T06:26:16.354Z,34.97
2023-07-29T06:29:18.763Z,34.84
2023-07-29T06:32:21.176Z,33.82
2023-07-29T06:35:23.611Z,36.75
2023-07-29T06:38:26.075Z,35.65
2023-07-29T06:41:28.524Z,36.95
2023-07-29T06:44:30.951Z,36.18
2023-07-29T06:47:33.470Z,29.65
2023-07-29T06:50:35.956Z,28.60
2023-07-29T06:53:38.412Z,28.82
2023-07-29T06:56:40.862Z,32.48
2023-07-29T06:59:43.315Z,28.01
2023-07-29T07:02:45.805Z,26.72
2023-07-29T07:05:48.252Z,26.47
2023-07-29T07:08:51.016Z,25.47
2023-07-29T07:11:53.734Z,25.65
2023-07-29T07:14:56.297Z,27.00
2023-07-29T07:17:58.863Z,28.54
2023-07-29T07:21:01.339Z,32.08
2023-07-29T07:24:03.938Z,31.81
2023-07-29T07:27:06.614Z,37.38
2023-07-29T07:30:09.504Z,38.49
2023-07-29T07:33:11.960Z,36.50
2023-07-29T07:36:14.380Z,33.26
2023-07-29T07:39:16.890Z,35.89
2023-07-29T07:42:19.309Z,35.28
2023-07-29T07:45:21.831Z,35.73
2023-07-29T07:48:24.299Z,36.82
2023-07-29T07:51:26.722Z,38.58
2023-07-29T07:54:29.116Z,38.82
2023-07-29T07:57:31.493Z,39.70
2023-07-29T08:00:33.867Z,38.50
2023-07-29T08:03:37.153Z,39.24
2023-07-29T08:06:39.715Z,37.17
2023-07-29T08:09:42.310Z,40.18
2023-07-29T08:12:44.719Z,38.35
2023-07-29T08:15:49.055Z,36.37
2023-07-29T08:18:51.492Z,34.70
2023-07-29T08:21:54.115Z,35.84
2023-07-29T08:24:56.515Z,33.20
2023-07-29T08:27:59.059Z,35.17
2023-07-29T08:31:01.621Z,36.86
2023-07-29T08:34:04.125Z,37.80
2023-07-29T08:37:06.936Z,40.10
2023-07-29T08:40:10.074Z,41.49
2023-07-29T08:43:13.504Z,41.36
2023-07-29T08:46:17.803Z,41.75
2023-07-29T08:49:20.977Z,39.98
2023-07-29T08:52:24.179Z,40.98
2023-07-29T08:55:26.798Z,40.87
2023-07-29T08:58:29.886Z,41.41
2023-07-29T09:01:32.668Z,40.22
2023-07-29T09:04:35.200Z,40.97
2023-07-29T09:07:39.321Z,41.68
2023-07-29T09:10:41.964Z,40.75
2023-07-29T09:13:44.875Z,40.19
2023-07-29T09:16:47.495Z,40.64
2023-07-29T09:19:51.533Z,40.08
2023-07-29T09:23:01.169Z,40.24
2023-07-29T09:26:04.750Z,39.93
2023-07-29T09:29:07.235Z,39.03
2023-07-29T09:32:21.051Z,38.70
2023-07-29T09:35:23.872Z,40.11
2023-07-29T09:38:29.471Z,39.37
2023-07-29T09:41:34.471Z,39.24
2023-07-29T09:44:39.605Z,39.88
2023-07-29T09:47:43.812Z,39.50
2023-07-29T09:50:48.445Z,39.52
2023-07-29T09:53:53.285Z,35.42
2023-07-29T09:56:55.748Z,32.51
2023-07-29T09:59:58.485Z,34.61
2023-07-29T10:03:01.757Z,37.17
2023-07-29T10:06:08.507Z,37.75
2023-07-29T10:09:13.157Z,39.57
2023-07-29T10:12:17.646Z,39.48
2023-07-29T10:15:22.041Z,37.49
2023-07-29T10:18:25.653Z,36.85
2023-07-29T10:21:30.255Z,36.43
2023-07-29T10:24:34.371Z,33.04
2023-07-29T10:27:44.433Z,35.52
2023-07-29T10:30:47.691Z,32.78
2023-07-29T10:33:51.150Z,30.80
2023-07-29T10:36:54.120Z,31.29
2023-07-29T10:39:56.821Z,30.85
2023-07-29T10:43:04.476Z,32.03
2023-07-29T10:46:23.907Z,32.39
2023-07-29T10:49:32.326Z,32.05
2023-07-29T10:52:37.682Z,31.77
2023-07-29T10:55:40.206Z,31.95
2023-07-29T10:58:44.433Z,32.11
2023-07-29T11:01:59.156Z,32.19
2023-07-29T11:05:07.480Z,31.74
2023-07-29T11:08:19.566Z,30.49
2023-07-29T11:11:21.990Z,30.84
2023-07-29T11:14:25.661Z,31.64
2023-07-29T11:17:28.524Z,31.11
2023-07-29T11:20:34.159Z,31.17
2023-07-29T11:23:38.226Z,30.86
2023-07-29T11:26:47.928Z,30.87
2023-07-29T11:29:50.405Z,31.68
2023-07-29T11:32:54.788Z,32.28
2023-07-29T11:35:57.318Z,32.27
2023-07-29T11:38:59.752Z,31.74
2023-07-29T11:42:02.147Z,31.31
2023-07-29T11:45:07.595Z,31.23
2023-07-29T11:48:10.242Z,32.59
2023-07-29T11:51:14.360Z,32.24
2023-07-29T11:54:17.222Z,31.66
2023-07-29T11:57:20.005Z,31.18
2023-07-29T12:00:22.770Z,30.43
2023-07-29T12:03:26.929Z,30.61
2023-07-29T12:06:32.190Z,30.79
2023-07-29T12:09:38.421Z,31.11
2023-07-29T12:12:50.959Z,30.53
2023-07-29T12:15:54.915Z,30.00
2023-07-29T12:18:57.628Z,29.92
2023-07-29T12:22:00.343Z,30.18
2023-07-29T12:25:04.360Z,30.52
2023-07-29T12:28:08.052Z,30.16
2023-07-29T12:31:10.959Z,29.55
2023-07-29T12:34:21.157Z,29.56
2023-07-29T12:37:32.810Z,29.70
2023-07-29T12:40:39.504Z,29.51
2023-07-29T12:43:41.958Z,29.33
2023-07-29T12:46:44.911Z,27.39
2023-07-29T12:49:47.412Z,26.63
2023-07-29T12:52:49.852Z,27.58
2023-07-29T12:55:52.284Z,28.67
2023-07-29T12:58:54.687Z,28.91
2023-07-29T13:01:57.166Z,29.41
2023-07-29T13:04:59.558Z,29.54
2023-07-29T13:08:02.049Z,30.26
2023-07-29T13:11:05.486Z,30.65
2023-07-29T13:14:07.989Z,30.61
2023-07-29T13:17:10.417Z,30.87
2023-07-29T13:20:12.888Z,31.39
2023-07-29T13:23:16.745Z,31.31
2023-07-29T13:26:19.176Z,31.55
2023-07-29T13:29:21.625Z,31.70
2023-07-29T13:32:24.058Z,32.47
2023-07-29T13:35:26.785Z,31.95
2023-07-29T13:38:29.754Z,31.78
2023-07-29T13:41:32.697Z,31.58
2023-07-29T13:44:35.078Z,31.78
2023-07-29T13:47:38.132Z,31.41
2023-07-29T13:50:40.698Z,30.90
2023-07-29T13:53:43.134Z,30.58
2023-07-29T13:56:45.552Z,30.51
2023-07-29T13:59:48.152Z,30.43
2023-07-29T14:02:50.623Z,30.64
2023-07-29T14:05:53.182Z,30.23
2023-07-29T14:08:55.609Z,30.22
2023-07-29T14:11:58.040Z,30.04
2023-07-29T14:15:00.541Z,30.70
2023-07-29T14:18:03.820Z,30.96
2023-07-29T14:21:06.288Z,30.43
2023-07-29T14:24:08.725Z,27.77
2023-07-29T14:27:11.126Z,27.86
2023-07-29T14:30:13.530Z,28.34
2023-07-29T14:33:16.043Z,28.56
2023-07-29T14:36:18.466Z,28.21
2023-07-29T14:39:20.870Z,27.66
2023-07-29T14:42:23.518Z,27.88
2023-07-29T14:45:26.179Z,28.50
2023-07-29T14:48:28.733Z,27.94
2023-07-29T14:51:31.276Z,28.12
2023-07-29T14:54:33.683Z,27.69
2023-07-29T14:57:36.194Z,27.46
2023-07-29T15:00:38.811Z,27.48
2023-07-29T15:03:41.299Z,27.42
2023-07-29T15:06:44.381Z,27.66
2023-07-29T15:09:47.475Z,27.13
2023-07-29T15:12:49.896Z,27.06
2023-07-29T15:15:52.352Z,27.18
2023-07-29T15:18:54.848Z,27.38
2023-07-29T15:21:57.280Z,27.33
2023-07-29T15:25:01.354Z,27.25
2023-07-29T15:28:03.943Z,27.43
2023-07-29T15:31:07.068Z,27.12
2023-07-29T15:34:09.557Z,27.02
2023-07-29T15:37:11.992Z,27.10
2023-07-29T15:40:14.722Z,27.18
2023-07-29T15:43:17.131Z,27.03
2023-07-29T15:46:19.670Z,26.83
2023-07-29T15:49:22.260Z,26.83
2023-07-29T15:52:24.904Z,26.99
2023-07-29T15:55:27.396Z,27.24
2023-07-29T15:58:29.861Z,27.00
2023-07-29T16:01:32.422Z,26.80
2023-07-29T16:04:34.900Z,26.58
2023-07-29T16:07:37.308Z,26.56
2023-07-29T16:10:39.701Z,26.45
2023-07-29T16:13:42.120Z,26.65
2023-07-29T16:16:45.461Z,26.58
2023-07-29T16:19:58.918Z,26.71
2023-07-29T16:23:01.324Z,26.67
2023-07-29T16:26:03.758Z,26.46
2023-07-29T16:29:06.621Z,26.30
2023-07-29T16:32:09.516Z,26.51
2023-07-29T16:35:11.985Z,26.58
2023-07-29T16:38:14.388Z,26.93
2023-07-29T16:41:46.230Z,27.12
2023-07-29T16:44:41.654Z,26.84
2023-07-29T16:47:44.210Z,26.77
2023-07-29T16:50:46.691Z,26.89
2023-07-29T16:53:49.402Z,27.01
2023-07-29T16:56:52.267Z,27.13
2023-07-29T16:59:54.758Z,26.48
2023-07-29T17:02:57.313Z,26.05
2023-07-29T17:05:59.827Z,25.77
2023-07-29T17:09:02.234Z,25.76
2023-07-29T17:12:05.221Z,25.49
2023-07-29T17:15:09.662Z,25.35
2023-07-29T17:18:12.197Z,25.29
2023-07-29T17:21:14.688Z,25.02
2023-07-29T17:24:17.487Z,24.76
2023-07-29T17:27:20.059Z,24.66
2023-07-29T17:30:22.454Z,24.52
2023-07-29T17:33:25.999Z,24.31
2023-07-29T17:36:28.503Z,24.12
2023-07-29T17:39:31.011Z,23.66
2023-07-29T17:42:33.520Z,23.50
2023-07-29T17:45:35.911Z,23.32
2023-07-29T17:48:38.487Z,23.16
2023-07-29T17:51:41.060Z,23.20
2023-07-29T17:54:43.535Z,23.03
2023-07-29T17:57:45.994Z,23.10
2023-07-29T18:00:50.082Z,23.10
2023-07-29T18:03:52.498Z,23.05
2023-07-29T18:06:56.721Z,22.92
2023-07-29T18:10:00.379Z,22.82
2023-07-29T18:13:02.866Z,22.68
2023-07-29T18:16:05.280Z,22.52
2023-07-29T18:19:07.823Z,22.54
2023-07-29T18:22:10.324Z,22.50
2023-07-29T18:25:12.758Z,22.47
2023-07-29T18:28:15.230Z,22.45
2023-07-29T18:31:17.727Z,22.40
2023-07-29T18:34:20.379Z,22.37
2023-07-29T18:37:22.906Z,22.44
2023-07-29T18:40:27.467Z,22.38
2023-07-29T18:43:29.922Z,22.34
2023-07-29T18:46:32.836Z,22.33
2023-07-29T18:49:35.324Z,22.30
2023-07-29T18:52:37.849Z,22.21
2023-07-29T18:55:41.213Z,22.18
2023-07-29T18:58:43.748Z,22.16
2023-07-29T19:01:46.221Z,21.61
2023-07-29T19:04:49.427Z,21.67
2023-07-29T19:07:51.802Z,21.60
2023-07-29T19:10:54.208Z,21.75
2023-07-29T19:13:56.642Z,21.71
2023-07-29T19:16:59.119Z,21.70
2023-07-29T19:20:07.012Z,21.70
2023-07-29T19:23:09.564Z,21.87
2023-07-29T19:26:12.038Z,22.01
2023-07-29T19:29:15.610Z,22.16
2023-07-29T19:32:19.396Z,22.11
2023-07-29T19:35:22.020Z,21.91
2023-07-29T19:38:24.842Z,21.84
2023-07-29T19:41:29.451Z,21.82
2023-07-29T19:44:34.354Z,21.94
2023-07-29T19:47:36.974Z,22.05
2023-07-29T19:50:39.409Z,22.15
2023-07-29T19:53:41.844Z,22.16
2023-07-29T19:56:44.275Z,22.11
2023-07-29T19:59:49.051Z,22.16
2023-07-29T20:02:51.815Z,22.04
2023-07-29T20:05:54.376Z,21.93
2023-07-29T20:08:56.852Z,21.82
2023-07-29T20:11:59.238Z,21.71
2023-07-29T20:15:01.917Z,21.64
2023-07-29T20:18:04.475Z,21.48
2023-07-29T20:21:06.902Z,21.52
2023-07-29T20:24:09.418Z,21.63
2023-07-29T20:27:11.873Z,21.52
2023-07-29T20:30:14.469Z,21.46
2023-07-29T20:33:16.848Z,21.42
2023-07-29T20:36:19.263Z,21.48
2023-07-29T20:39:21.770Z,21.51
2023-07-29T20:42:24.205Z,21.34
2023-07-29T20:45:26.678Z,21.23
2023-07-29T20:48:29.535Z,21.16
2023-07-29T20:51:32.013Z,21.33
2023-07-29T20:54:34.436Z,21.34
2023-07-29T20:57:36.870Z,21.06
2023-07-29T21:00:39.358Z,21.05
2023-07-29T21:03:41.845Z,20.73
2023-07-29T21:06:44.265Z,20.58
2023-07-29T21:09:46.662Z,20.53
2023-07-29T21:12:49.115Z,20.68
2023-07-29T21:15:51.985Z,20.40
2023-07-29T21:18:54.563Z,20.20
2023-07-29T21:21:56.991Z,20.15
2023-07-29T21:24:59.467Z,20.01
2023-07-29T21:28:01.933Z,20.05
2023-07-29T21:31:04.572Z,20.12
2023-07-29T21:34:07.064Z,19.47
2023-07-29T21:37:11.564Z,19.71
2023-07-29T21:40:18.040Z,19.52
2023-07-29T21:43:20.502Z,19.35
2023-07-29T21:46:23.049Z,19.26
2023-07-29T21:49:25.547Z,19.25
2023-07-29T21:52:29.441Z,19.28
2023-07-29T21:55:31.907Z,19.24
2023-07-29T21:58:34.342Z,19.11
2023-07-29T22:01:36.969Z,18.95
2023-07-29T22:04:39.742Z,18.80
2023-07-29T22:07:42.251Z,18.72
2023-07-29T22:10:44.730Z,18.75
2023-07-29T22:13:47.241Z,18.69
2023-07-29T22:16:49.741Z,18.76
2023-07-29T22:19:52.291Z,18.56
2023-07-29T22:22:54.723Z,18.66
2023-07-29T22:26:01.288Z,18.79
2023-07-29T22:29:03.887Z,18.80
2023-07-29T22:32:07.190Z,18.83
2023-07-29T22:35:09.718Z,19.02
2023-07-29T22:38:12.212Z,19.26
2023-07-29T22:41:14.636Z,19.36
2023-07-29T22:44:17.113Z,19.28
2023-07-29T22:47:19.549Z,19.54
2023-07-29T22:50:22.160Z,19.64
2023-07-29T22:53:25.114Z,19.75
2023-07-29T22:56:27.511Z,19.78
2023-07-29T22:59:29.994Z,19.71
2023-07-29T23:02:32.516Z,19.79
2023-07-29T23:05:37.172Z,19.82
2023-07-29T23:08:39.676Z,19.91
2023-07-29T23:11:42.066Z,19.84
2023-07-29T23:14:44.879Z,19.79
2023-07-29T23:17:47.399Z,19.69
2023-07-29T23:20:53.165Z,19.75
2023-07-29T23:23:55.728Z,19.82
2023-07-29T23:26:58.221Z,19.65
2023-07-29T23:30:00.650Z,19.65
2023-07-29T23:33:03.104Z,19.22
2023-07-29T23:36:05.566Z,18.83
2023-07-29T23:39:07.949Z,18.91
2023-07-29T23:42:10.369Z,18.83
2023-07-29T23:45:12.840Z,18.71
2023-07-29T23:48:15.253Z,18.88
2023-07-29T23:51:17.712Z,18.94
2023-07-29T23:54:20.135Z,18.87
2023-07-29T23:57:22.560Z,18.71
